sensor_id;sensor_type;location;lat;lon;timestamp;temperature;humidity
55721;DHT22;41626;53.098;6.168;2022-09-06T00:00:53;20.80;99.90
55721;DHT22;41626;53.098;6.168;2022-09-06T00:03:19;20.90;99.90
55721;DHT22;41626;53.098;6.168;2022-09-06T00:05:44;20.90;99.90
55721;DHT22;41626;53.098;6.168;2022-09-06T00:08:10;20.80;99.90
55721;DHT22;41626;53.098;6.168;2022-09-06T00:10:36;20.70;99.90
55721;DHT22;41626;53.098;6.168;2022-09-06T00:13:06;20.70;99.90
55721;DHT22;41626;53.098;6.168;2022-09-06T00:15:33;20.80;99.90
55721;DHT22;41626;53.098;6.168;2022-09-06T00:18:04;20.70;99.90
55721;DHT22;41626;53.098;6.168;2022-09-06T00:20:31;20.50;99.90
55721;DHT22;41626;53.098;6.168;2022-09-06T00:23:02;20.60;99.90
55721;DHT22;41626;53.098;6.168;2022-09-06T00:25:29;20.60;99.90
55721;DHT22;41626;53.098;6.168;2022-09-06T00:27:56;20.70;99.90
55721;DHT22;41626;53.098;6.168;2022-09-06T00:30:23;20.70;99.90
55721;DHT22;41626;53.098;6.168;2022-09-06T00:32:49;20.60;99.90
55721;DHT22;41626;53.098;6.168;2022-09-06T00:35:15;20.50;99.90
55721;DHT22;41626;53.098;6.168;2022-09-06T00:37:40;20.50;99.90
55721;DHT22;41626;53.098;6.168;2022-09-06T00:40:07;20.60;99.90
55721;DHT22;41626;53.098;6.168;2022-09-06T00:42:32;20.60;99.90
55721;DHT22;41626;53.098;6.168;2022-09-06T00:44:59;20.60;99.90
55721;DHT22;41626;53.098;6.168;2022-09-06T00:47:25;20.30;99.90
55721;DHT22;41626;53.098;6.168;2022-09-06T00:49:54;20.20;99.90
55721;DHT22;41626;53.098;6.168;2022-09-06T00:52:22;20.20;99.90
55721;DHT22;41626;53.098;6.168;2022-09-06T00:54:49;20.20;99.90
55721;DHT22;41626;53.098;6.168;2022-09-06T00:57:16;20.20;99.90
55721;DHT22;41626;53.098;6.168;2022-09-06T00:59:43;20.30;99.90
55721;DHT22;41626;53.098;6.168;2022-09-06T01:02:10;20.30;99.90
55721;DHT22;41626;53.098;6.168;2022-09-06T01:04:38;20.30;99.90
55721;DHT22;41626;53.098;6.168;2022-09-06T01:12:24;20.10;99.90
55721;DHT22;41626;53.098;6.168;2022-09-06T01:20:35;20.10;99.90
55721;DHT22;41626;53.098;6.168;2022-09-06T01:29:00;20.00;99.90
55721;DHT22;41626;53.098;6.168;2022-09-06T01:31:41;20.00;99.90
55721;DHT22;41626;53.098;6.168;2022-09-06T01:34:33;20.00;99.90
55721;DHT22;41626;53.098;6.168;2022-09-06T01:37:02;19.90;99.90
55721;DHT22;41626;53.098;6.168;2022-09-06T01:39:31;19.90;99.90
55721;DHT22;41626;53.098;6.168;2022-09-06T01:42:00;20.00;99.90
55721;DHT22;41626;53.098;6.168;2022-09-06T01:44:29;19.90;99.90
55721;DHT22;41626;53.098;6.168;2022-09-06T01:47:19;19.90;99.90
55721;DHT22;41626;53.098;6.168;2022-09-06T01:50:10;19.90;99.90
55721;DHT22;41626;53.098;6.168;2022-09-06T01:55:49;19.90;99.90
55721;DHT22;41626;53.098;6.168;2022-09-06T02:01:12;19.70;99.90
55721;DHT22;41626;53.098;6.168;2022-09-06T02:04:00;19.60;99.90
55721;DHT22;41626;53.098;6.168;2022-09-06T02:06:37;19.60;99.90
55721;DHT22;41626;53.098;6.168;2022-09-06T02:09:06;19.40;99.90
55721;DHT22;41626;53.098;6.168;2022-09-06T02:11:41;19.50;99.90
55721;DHT22;41626;53.098;6.168;2022-09-06T02:14:12;19.40;99.90
55721;DHT22;41626;53.098;6.168;2022-09-06T02:16:42;19.40;99.90
55721;DHT22;41626;53.098;6.168;2022-09-06T02:19:30;19.40;99.90
55721;DHT22;41626;53.098;6.168;2022-09-06T02:21:58;19.40;99.90
55721;DHT22;41626;53.098;6.168;2022-09-06T02:24:28;19.40;99.90
55721;DHT22;41626;53.098;6.168;2022-09-06T02:26:55;19.30;99.90
55721;DHT22;41626;53.098;6.168;2022-09-06T02:29:21;19.30;99.90
55721;DHT22;41626;53.098;6.168;2022-09-06T02:32:11;19.30;99.90
55721;DHT22;41626;53.098;6.168;2022-09-06T02:34:39;19.30;99.90
55721;DHT22;41626;53.098;6.168;2022-09-06T02:37:06;19.30;99.90
55721;DHT22;41626;53.098;6.168;2022-09-06T02:39:32;19.30;99.90
55721;DHT22;41626;53.098;6.168;2022-09-06T02:41:59;19.20;99.90
55721;DHT22;41626;53.098;6.168;2022-09-06T02:44:25;19.20;99.90
55721;DHT22;41626;53.098;6.168;2022-09-06T02:46:51;19.20;99.90
55721;DHT22;41626;53.098;6.168;2022-09-06T02:49:16;19.30;99.90
55721;DHT22;41626;53.098;6.168;2022-09-06T02:51:42;19.20;99.90
55721;DHT22;41626;53.098;6.168;2022-09-06T02:54:08;19.20;99.90
55721;DHT22;41626;53.098;6.168;2022-09-06T02:56:33;19.20;99.90
55721;DHT22;41626;53.098;6.168;2022-09-06T02:59:01;19.10;99.90
55721;DHT22;41626;53.098;6.168;2022-09-06T03:01:28;19.10;99.90
55721;DHT22;41626;53.098;6.168;2022-09-06T03:03:54;19.10;99.90
55721;DHT22;41626;53.098;6.168;2022-09-06T03:06:21;19.10;99.90
55721;DHT22;41626;53.098;6.168;2022-09-06T03:08:46;19.10;99.90
55721;DHT22;41626;53.098;6.168;2022-09-06T03:11:12;19.00;99.90
55721;DHT22;41626;53.098;6.168;2022-09-06T03:13:38;19.00;99.90
55721;DHT22;41626;53.098;6.168;2022-09-06T03:16:04;19.00;99.90
55721;DHT22;41626;53.098;6.168;2022-09-06T03:18:30;19.00;99.90
55721;DHT22;41626;53.098;6.168;2022-09-06T03:20:56;18.90;99.90
55721;DHT22;41626;53.098;6.168;2022-09-06T03:23:25;19.00;99.90
55721;DHT22;41626;53.098;6.168;2022-09-06T03:25:51;18.90;99.90
55721;DHT22;41626;53.098;6.168;2022-09-06T03:28:17;18.90;99.90
55721;DHT22;41626;53.098;6.168;2022-09-06T03:30:45;19.00;99.90
55721;DHT22;41626;53.098;6.168;2022-09-06T03:33:11;18.90;99.90
55721;DHT22;41626;53.098;6.168;2022-09-06T03:35:37;18.90;99.90
55721;DHT22;41626;53.098;6.168;2022-09-06T03:38:03;18.90;99.90
55721;DHT22;41626;53.098;6.168;2022-09-06T03:40:28;18.80;99.90
55721;DHT22;41626;53.098;6.168;2022-09-06T03:42:55;18.70;99.90
55721;DHT22;41626;53.098;6.168;2022-09-06T03:45:20;18.70;99.90
55721;DHT22;41626;53.098;6.168;2022-09-06T03:47:46;18.70;99.90
55721;DHT22;41626;53.098;6.168;2022-09-06T03:50:12;18.80;99.90
55721;DHT22;41626;53.098;6.168;2022-09-06T03:52:37;18.80;99.90
55721;DHT22;41626;53.098;6.168;2022-09-06T03:55:04;18.70;99.90
55721;DHT22;41626;53.098;6.168;2022-09-06T03:57:30;18.70;99.90
55721;DHT22;41626;53.098;6.168;2022-09-06T03:59:55;18.70;99.90
55721;DHT22;41626;53.098;6.168;2022-09-06T04:02:21;18.70;99.90
55721;DHT22;41626;53.098;6.168;2022-09-06T04:04:47;18.70;99.90
55721;DHT22;41626;53.098;6.168;2022-09-06T04:07:12;18.80;99.90
55721;DHT22;41626;53.098;6.168;2022-09-06T04:09:38;18.80;99.90
55721;DHT22;41626;53.098;6.168;2022-09-06T04:12:04;18.80;99.90
55721;DHT22;41626;53.098;6.168;2022-09-06T04:14:29;18.80;99.90
55721;DHT22;41626;53.098;6.168;2022-09-06T04:16:55;18.80;99.90
55721;DHT22;41626;53.098;6.168;2022-09-06T04:19:21;18.80;99.90
55721;DHT22;41626;53.098;6.168;2022-09-06T04:21:47;18.70;99.90
55721;DHT22;41626;53.098;6.168;2022-09-06T04:24:13;18.70;99.90
55721;DHT22;41626;53.098;6.168;2022-09-06T04:26:38;18.60;99.90
55721;DHT22;41626;53.098;6.168;2022-09-06T04:29:04;18.50;99.90
55721;DHT22;41626;53.098;6.168;2022-09-06T04:31:30;18.40;99.90
55721;DHT22;41626;53.098;6.168;2022-09-06T04:33:55;18.30;99.90
55721;DHT22;41626;53.098;6.168;2022-09-06T04:36:21;18.20;99.90
55721;DHT22;41626;53.098;6.168;2022-09-06T04:38:46;18.00;99.90
55721;DHT22;41626;53.098;6.168;2022-09-06T04:41:14;18.10;99.90
55721;DHT22;41626;53.098;6.168;2022-09-06T04:43:41;18.00;99.90
55721;DHT22;41626;53.098;6.168;2022-09-06T04:48:39;17.70;99.90
55721;DHT22;41626;53.098;6.168;2022-09-06T04:51:05;17.70;99.90
55721;DHT22;41626;53.098;6.168;2022-09-06T04:53:30;17.70;99.90
55721;DHT22;41626;53.098;6.168;2022-09-06T04:55:57;17.70;99.90
55721;DHT22;41626;53.098;6.168;2022-09-06T04:58:23;17.80;99.90
55721;DHT22;41626;53.098;6.168;2022-09-06T05:00:49;17.70;99.90
55721;DHT22;41626;53.098;6.168;2022-09-06T05:03:14;17.60;99.90
55721;DHT22;41626;53.098;6.168;2022-09-06T05:05:40;17.50;99.90
55721;DHT22;41626;53.098;6.168;2022-09-06T05:08:05;17.50;99.90
55721;DHT22;41626;53.098;6.168;2022-09-06T05:10:31;17.40;99.90
55721;DHT22;41626;53.098;6.168;2022-09-06T05:13:00;17.40;99.90
55721;DHT22;41626;53.098;6.168;2022-09-06T05:15:25;17.60;99.90
55721;DHT22;41626;53.098;6.168;2022-09-06T05:17:51;17.50;99.90
55721;DHT22;41626;53.098;6.168;2022-09-06T05:20:17;17.40;99.90
55721;DHT22;41626;53.098;6.168;2022-09-06T05:22:42;17.40;99.90
55721;DHT22;41626;53.098;6.168;2022-09-06T05:25:16;17.30;99.90
55721;DHT22;41626;53.098;6.168;2022-09-06T05:27:41;17.30;99.90
55721;DHT22;41626;53.098;6.168;2022-09-06T05:30:08;17.30;99.90
55721;DHT22;41626;53.098;6.168;2022-09-06T05:32:34;17.30;99.90
55721;DHT22;41626;53.098;6.168;2022-09-06T05:34:59;17.30;99.90
55721;DHT22;41626;53.098;6.168;2022-09-06T05:37:25;17.40;99.90
55721;DHT22;41626;53.098;6.168;2022-09-06T05:39:51;17.40;99.90
55721;DHT22;41626;53.098;6.168;2022-09-06T05:42:16;17.50;99.90
55721;DHT22;41626;53.098;6.168;2022-09-06T05:44:42;17.30;99.90
55721;DHT22;41626;53.098;6.168;2022-09-06T05:47:07;17.30;99.90
55721;DHT22;41626;53.098;6.168;2022-09-06T05:49:33;17.30;99.90
55721;DHT22;41626;53.098;6.168;2022-09-06T05:51:59;17.30;99.90
55721;DHT22;41626;53.098;6.168;2022-09-06T05:54:25;17.20;99.90
55721;DHT22;41626;53.098;6.168;2022-09-06T05:56:50;17.20;99.90
55721;DHT22;41626;53.098;6.168;2022-09-06T05:59:16;17.20;99.90
55721;DHT22;41626;53.098;6.168;2022-09-06T06:01:52;17.20;99.90
55721;DHT22;41626;53.098;6.168;2022-09-06T06:04:18;17.30;99.90
55721;DHT22;41626;53.098;6.168;2022-09-06T06:06:44;17.30;99.90
55721;DHT22;41626;53.098;6.168;2022-09-06T06:09:14;17.30;99.90
55721;DHT22;41626;53.098;6.168;2022-09-06T06:11:40;17.40;99.90
55721;DHT22;41626;53.098;6.168;2022-09-06T06:14:06;17.40;99.90
55721;DHT22;41626;53.098;6.168;2022-09-06T06:16:32;17.40;99.90
55721;DHT22;41626;53.098;6.168;2022-09-06T06:18:58;17.30;99.90
55721;DHT22;41626;53.098;6.168;2022-09-06T06:21:26;17.40;99.90
55721;DHT22;41626;53.098;6.168;2022-09-06T06:24:02;17.30;99.90
55721;DHT22;41626;53.098;6.168;2022-09-06T06:26:30;17.40;99.90
55721;DHT22;41626;53.098;6.168;2022-09-06T06:28:56;17.50;99.90
55721;DHT22;41626;53.098;6.168;2022-09-06T06:31:29;17.50;99.90
55721;DHT22;41626;53.098;6.168;2022-09-06T06:33:55;17.60;99.90
55721;DHT22;41626;53.098;6.168;2022-09-06T06:36:24;17.60;99.90
55721;DHT22;41626;53.098;6.168;2022-09-06T06:38:54;17.60;99.90
55721;DHT22;41626;53.098;6.168;2022-09-06T06:41:22;17.60;99.90
55721;DHT22;41626;53.098;6.168;2022-09-06T06:43:56;17.70;99.90
55721;DHT22;41626;53.098;6.168;2022-09-06T06:46:24;17.60;99.90
55721;DHT22;41626;53.098;6.168;2022-09-06T06:48:50;17.70;99.90
55721;DHT22;41626;53.098;6.168;2022-09-06T06:51:19;17.80;99.90
55721;DHT22;41626;53.098;6.168;2022-09-06T06:53:46;17.90;99.90
55721;DHT22;41626;53.098;6.168;2022-09-06T06:56:24;17.90;99.90
55721;DHT22;41626;53.098;6.168;2022-09-06T06:58:51;18.00;99.90
55721;DHT22;41626;53.098;6.168;2022-09-06T07:01:19;18.10;99.90
55721;DHT22;41626;53.098;6.168;2022-09-06T07:03:45;17.90;99.90
55721;DHT22;41626;53.098;6.168;2022-09-06T07:06:12;18.00;99.90
55721;DHT22;41626;53.098;6.168;2022-09-06T07:08:38;18.00;99.90
55721;DHT22;41626;53.098;6.168;2022-09-06T07:11:05;17.90;99.90
55721;DHT22;41626;53.098;6.168;2022-09-06T07:13:31;17.90;99.90
55721;DHT22;41626;53.098;6.168;2022-09-06T07:16:21;17.90;99.90
55721;DHT22;41626;53.098;6.168;2022-09-06T07:18:51;17.90;99.90
55721;DHT22;41626;53.098;6.168;2022-09-06T07:21:19;18.00;99.90
55721;DHT22;41626;53.098;6.168;2022-09-06T07:23:45;18.30;99.90
55721;DHT22;41626;53.098;6.168;2022-09-06T07:26:19;18.50;99.90
55721;DHT22;41626;53.098;6.168;2022-09-06T07:28:45;18.40;99.90
55721;DHT22;41626;53.098;6.168;2022-09-06T07:31:13;18.60;99.90
55721;DHT22;41626;53.098;6.168;2022-09-06T07:33:45;18.80;99.90
55721;DHT22;41626;53.098;6.168;2022-09-06T07:36:14;18.80;99.90
55721;DHT22;41626;53.098;6.168;2022-09-06T07:38:42;18.90;99.90
55721;DHT22;41626;53.098;6.168;2022-09-06T07:41:08;19.00;99.90
55721;DHT22;41626;53.098;6.168;2022-09-06T07:43:37;19.10;99.90
55721;DHT22;41626;53.098;6.168;2022-09-06T07:46:12;19.30;99.90
55721;DHT22;41626;53.098;6.168;2022-09-06T07:48:40;19.40;99.90
55721;DHT22;41626;53.098;6.168;2022-09-06T07:53:33;19.60;99.90
55721;DHT22;41626;53.098;6.168;2022-09-06T07:55:59;19.90;99.90
55721;DHT22;41626;53.098;6.168;2022-09-06T07:58:27;20.00;99.90
55721;DHT22;41626;53.098;6.168;2022-09-06T08:00:52;20.20;99.90
55721;DHT22;41626;53.098;6.168;2022-09-06T08:03:18;20.20;99.90
55721;DHT22;41626;53.098;6.168;2022-09-06T08:05:50;20.30;99.90
55721;DHT22;41626;53.098;6.168;2022-09-06T08:08:16;20.10;99.90
55721;DHT22;41626;53.098;6.168;2022-09-06T08:10:41;20.10;99.90
55721;DHT22;41626;53.098;6.168;2022-09-06T08:13:07;20.10;99.90
55721;DHT22;41626;53.098;6.168;2022-09-06T08:15:33;20.10;99.90
55721;DHT22;41626;53.098;6.168;2022-09-06T08:17:58;20.30;99.90
55721;DHT22;41626;53.098;6.168;2022-09-06T08:20:24;20.30;99.90
55721;DHT22;41626;53.098;6.168;2022-09-06T08:22:49;20.30;99.90
55721;DHT22;41626;53.098;6.168;2022-09-06T08:25:15;20.30;99.90
55721;DHT22;41626;53.098;6.168;2022-09-06T08:27:41;20.30;99.90
55721;DHT22;41626;53.098;6.168;2022-09-06T08:30:07;20.50;99.90
55721;DHT22;41626;53.098;6.168;2022-09-06T08:32:33;20.70;99.90
55721;DHT22;41626;53.098;6.168;2022-09-06T08:35:03;20.80;99.90
55721;DHT22;41626;53.098;6.168;2022-09-06T08:37:29;21.00;99.90
55721;DHT22;41626;53.098;6.168;2022-09-06T08:39:54;21.10;99.90
55721;DHT22;41626;53.098;6.168;2022-09-06T08:42:20;21.00;99.90
55721;DHT22;41626;53.098;6.168;2022-09-06T08:44:51;20.90;99.90
55721;DHT22;41626;53.098;6.168;2022-09-06T08:47:19;21.10;99.90
55721;DHT22;41626;53.098;6.168;2022-09-06T08:49:47;21.40;99.90
55721;DHT22;41626;53.098;6.168;2022-09-06T09:00:19;21.90;99.90
55721;DHT22;41626;53.098;6.168;2022-09-06T09:03:03;21.90;99.90
55721;DHT22;41626;53.098;6.168;2022-09-06T09:05:36;22.00;99.90
55721;DHT22;41626;53.098;6.168;2022-09-06T09:11:05;22.50;99.90
55721;DHT22;41626;53.098;6.168;2022-09-06T09:13:41;22.60;99.90
55721;DHT22;41626;53.098;6.168;2022-09-06T09:16:13;22.80;99.90
55721;DHT22;41626;53.098;6.168;2022-09-06T09:18:41;22.90;99.90
55721;DHT22;41626;53.098;6.168;2022-09-06T09:21:08;22.90;99.90
55721;DHT22;41626;53.098;6.168;2022-09-06T09:23:35;22.80;99.90
55721;DHT22;41626;53.098;6.168;2022-09-06T09:26:08;22.80;99.90
55721;DHT22;41626;53.098;6.168;2022-09-06T09:28:35;22.70;99.90
55721;DHT22;41626;53.098;6.168;2022-09-06T09:31:00;22.80;99.90
55721;DHT22;41626;53.098;6.168;2022-09-06T09:33:36;23.00;99.90
55721;DHT22;41626;53.098;6.168;2022-09-06T09:36:11;23.00;99.90
55721;DHT22;41626;53.098;6.168;2022-09-06T09:38:43;23.20;99.90
55721;DHT22;41626;53.098;6.168;2022-09-06T09:44:00;23.40;99.90
55721;DHT22;41626;53.098;6.168;2022-09-06T09:46:32;23.40;99.90
55721;DHT22;41626;53.098;6.168;2022-09-06T09:52:11;23.40;99.90
55721;DHT22;41626;53.098;6.168;2022-09-06T09:54:40;23.60;99.90
55721;DHT22;41626;53.098;6.168;2022-09-06T09:57:12;23.70;99.90
55721;DHT22;41626;53.098;6.168;2022-09-06T09:59:44;23.50;99.90
55721;DHT22;41626;53.098;6.168;2022-09-06T10:02:30;23.60;99.90
55721;DHT22;41626;53.098;6.168;2022-09-06T10:05:18;23.60;99.90
55721;DHT22;41626;53.098;6.168;2022-09-06T10:07:47;23.80;99.90
55721;DHT22;41626;53.098;6.168;2022-09-06T10:10:20;23.90;99.90
55721;DHT22;41626;53.098;6.168;2022-09-06T10:12:46;24.00;99.90
55721;DHT22;41626;53.098;6.168;2022-09-06T10:15:33;24.20;99.90
55721;DHT22;41626;53.098;6.168;2022-09-06T10:17:59;24.40;99.90
55721;DHT22;41626;53.098;6.168;2022-09-06T10:23:36;24.40;99.90
55721;DHT22;41626;53.098;6.168;2022-09-06T10:29:23;24.70;99.90
55721;DHT22;41626;53.098;6.168;2022-09-06T10:34:56;24.60;99.90
55721;DHT22;41626;53.098;6.168;2022-09-06T10:37:52;24.80;99.90
55721;DHT22;41626;53.098;6.168;2022-09-06T10:42:56;25.00;99.90
55721;DHT22;41626;53.098;6.168;2022-09-06T10:45:37;25.40;99.90
55721;DHT22;41626;53.098;6.168;2022-09-06T10:48:29;25.40;99.90
55721;DHT22;41626;53.098;6.168;2022-09-06T10:54:08;25.60;99.90
55721;DHT22;41626;53.098;6.168;2022-09-06T10:56:36;25.50;99.90
55721;DHT22;41626;53.098;6.168;2022-09-06T11:04:41;25.60;99.90
55721;DHT22;41626;53.098;6.168;2022-09-06T11:07:31;25.50;99.90
55721;DHT22;41626;53.098;6.168;2022-09-06T11:15:12;26.00;99.90
55721;DHT22;41626;53.098;6.168;2022-09-06T11:20:10;25.80;99.90
55721;DHT22;41626;53.098;6.168;2022-09-06T11:28:44;26.10;99.90
55721;DHT22;41626;53.098;6.168;2022-09-06T11:31:19;26.00;99.90
55721;DHT22;41626;53.098;6.168;2022-09-06T11:33:46;26.10;99.90
55721;DHT22;41626;53.098;6.168;2022-09-06T11:38:59;25.90;99.90
55721;DHT22;41626;53.098;6.168;2022-09-06T11:41:31;26.30;99.90
55721;DHT22;41626;53.098;6.168;2022-09-06T11:43:58;26.00;99.90
55721;DHT22;41626;53.098;6.168;2022-09-06T11:49:02;26.30;99.90
55721;DHT22;41626;53.098;6.168;2022-09-06T11:51:37;26.20;99.90
55721;DHT22;41626;53.098;6.168;2022-09-06T11:54:23;26.30;99.90
55721;DHT22;41626;53.098;6.168;2022-09-06T12:02:28;26.50;99.90
55721;DHT22;41626;53.098;6.168;2022-09-06T12:07:25;26.60;99.90
55721;DHT22;41626;53.098;6.168;2022-09-06T12:09:51;26.60;99.90
55721;DHT22;41626;53.098;6.168;2022-09-06T12:15:28;27.00;99.90
55721;DHT22;41626;53.098;6.168;2022-09-06T12:17:54;26.80;99.90
55721;DHT22;41626;53.098;6.168;2022-09-06T12:26:00;26.90;99.90
55721;DHT22;41626;53.098;6.168;2022-09-06T12:28:38;26.90;99.90
55721;DHT22;41626;53.098;6.168;2022-09-06T12:31:27;26.90;99.90
55721;DHT22;41626;53.098;6.168;2022-09-06T12:33:56;26.80;99.90
55721;DHT22;41626;53.098;6.168;2022-09-06T12:36:47;27.00;99.90
55721;DHT22;41626;53.098;6.168;2022-09-06T12:39:14;27.00;99.90
55721;DHT22;41626;53.098;6.168;2022-09-06T12:41:43;27.00;99.90
55721;DHT22;41626;53.098;6.168;2022-09-06T12:44:12;27.20;99.90
55721;DHT22;41626;53.098;6.168;2022-09-06T12:46:45;27.30;99.90
55721;DHT22;41626;53.098;6.168;2022-09-06T12:49:12;27.20;99.90
55721;DHT22;41626;53.098;6.168;2022-09-06T12:51:40;27.40;99.90
55721;DHT22;41626;53.098;6.168;2022-09-06T12:56:43;27.50;99.90
55721;DHT22;41626;53.098;6.168;2022-09-06T12:59:10;27.20;99.90
55721;DHT22;41626;53.098;6.168;2022-09-06T13:01:41;27.20;99.90
55721;DHT22;41626;53.098;6.168;2022-09-06T13:04:23;27.20;99.90
55721;DHT22;41626;53.098;6.168;2022-09-06T13:06:50;27.10;99.90
55721;DHT22;41626;53.098;6.168;2022-09-06T13:09:18;27.00;99.90
55721;DHT22;41626;53.098;6.168;2022-09-06T13:11:50;26.90;99.90
55721;DHT22;41626;53.098;6.168;2022-09-06T13:14:28;27.10;99.90
55721;DHT22;41626;53.098;6.168;2022-09-06T13:16:55;27.30;99.90
55721;DHT22;41626;53.098;6.168;2022-09-06T13:19:36;27.80;99.90
55721;DHT22;41626;53.098;6.168;2022-09-06T13:22:05;28.10;99.90
55721;DHT22;41626;53.098;6.168;2022-09-06T13:30:07;27.80;99.90
55721;DHT22;41626;53.098;6.168;2022-09-06T13:32:35;27.90;99.90
55721;DHT22;41626;53.098;6.168;2022-09-06T13:35:01;27.90;99.90
55721;DHT22;41626;53.098;6.168;2022-09-06T13:37:32;27.90;99.90
55721;DHT22;41626;53.098;6.168;2022-09-06T13:43:22;27.40;99.90
55721;DHT22;41626;53.098;6.168;2022-09-06T13:45:48;27.30;99.90
55721;DHT22;41626;53.098;6.168;2022-09-06T13:48:14;27.50;99.90
55721;DHT22;41626;53.098;6.168;2022-09-06T13:50:41;27.90;99.90
55721;DHT22;41626;53.098;6.168;2022-09-06T13:53:07;28.00;99.90
55721;DHT22;41626;53.098;6.168;2022-09-06T13:55:33;28.20;99.90
55721;DHT22;41626;53.098;6.168;2022-09-06T13:57:58;28.20;99.90
55721;DHT22;41626;53.098;6.168;2022-09-06T14:00:24;28.10;99.90
55721;DHT22;41626;53.098;6.168;2022-09-06T14:02:50;27.90;99.90
55721;DHT22;41626;53.098;6.168;2022-09-06T14:05:16;27.70;99.90
55721;DHT22;41626;53.098;6.168;2022-09-06T14:07:43;27.40;99.90
55721;DHT22;41626;53.098;6.168;2022-09-06T14:10:09;27.30;99.90
55721;DHT22;41626;53.098;6.168;2022-09-06T14:12:36;27.60;99.90
55721;DHT22;41626;53.098;6.168;2022-09-06T14:15:03;27.90;99.90
55721;DHT22;41626;53.098;6.168;2022-09-06T14:17:29;27.90;99.90
55721;DHT22;41626;53.098;6.168;2022-09-06T14:19:55;27.70;99.90
55721;DHT22;41626;53.098;6.168;2022-09-06T14:22:20;27.90;99.90
55721;DHT22;41626;53.098;6.168;2022-09-06T14:24:46;27.90;99.90
55721;DHT22;41626;53.098;6.168;2022-09-06T14:27:13;27.80;99.90
55721;DHT22;41626;53.098;6.168;2022-09-06T14:29:39;27.60;99.90
55721;DHT22;41626;53.098;6.168;2022-09-06T14:32:05;27.50;99.90
55721;DHT22;41626;53.098;6.168;2022-09-06T14:34:31;27.60;99.90
55721;DHT22;41626;53.098;6.168;2022-09-06T14:36:57;27.60;99.90
55721;DHT22;41626;53.098;6.168;2022-09-06T14:39:22;27.60;99.90
55721;DHT22;41626;53.098;6.168;2022-09-06T14:41:48;27.50;99.90
55721;DHT22;41626;53.098;6.168;2022-09-06T14:44:14;27.50;99.90
55721;DHT22;41626;53.098;6.168;2022-09-06T14:46:40;27.50;99.90
55721;DHT22;41626;53.098;6.168;2022-09-06T14:49:07;27.40;99.90
55721;DHT22;41626;53.098;6.168;2022-09-06T14:51:35;27.40;99.90
55721;DHT22;41626;53.098;6.168;2022-09-06T14:54:08;27.40;99.90
55721;DHT22;41626;53.098;6.168;2022-09-06T14:56:34;27.60;99.90
55721;DHT22;41626;53.098;6.168;2022-09-06T14:59:00;27.60;99.90
55721;DHT22;41626;53.098;6.168;2022-09-06T15:01:30;27.80;99.90
55721;DHT22;41626;53.098;6.168;2022-09-06T15:04:01;27.80;99.90
55721;DHT22;41626;53.098;6.168;2022-09-06T15:06:29;27.90;99.90
55721;DHT22;41626;53.098;6.168;2022-09-06T15:08:55;27.80;99.90
55721;DHT22;41626;53.098;6.168;2022-09-06T15:13:55;27.80;99.90
55721;DHT22;41626;53.098;6.168;2022-09-06T15:16:20;27.80;99.90
55721;DHT22;41626;53.098;6.168;2022-09-06T15:18:46;27.70;99.90
55721;DHT22;41626;53.098;6.168;2022-09-06T15:21:16;27.70;99.90
55721;DHT22;41626;53.098;6.168;2022-09-06T15:23:42;27.40;99.90
55721;DHT22;41626;53.098;6.168;2022-09-06T15:26:09;27.30;99.90
55721;DHT22;41626;53.098;6.168;2022-09-06T15:28:36;27.40;99.90
55721;DHT22;41626;53.098;6.168;2022-09-06T15:31:04;27.40;99.90
55721;DHT22;41626;53.098;6.168;2022-09-06T15:33:31;27.40;99.90
55721;DHT22;41626;53.098;6.168;2022-09-06T15:35:57;27.40;99.90
55721;DHT22;41626;53.098;6.168;2022-09-06T15:38:25;27.30;99.90
55721;DHT22;41626;53.098;6.168;2022-09-06T15:40:50;27.30;99.90
55721;DHT22;41626;53.098;6.168;2022-09-06T15:43:16;27.30;99.90
55721;DHT22;41626;53.098;6.168;2022-09-06T15:45:46;27.30;99.90
55721;DHT22;41626;53.098;6.168;2022-09-06T15:48:13;27.30;99.90
55721;DHT22;41626;53.098;6.168;2022-09-06T15:50:41;27.40;99.90
55721;DHT22;41626;53.098;6.168;2022-09-06T15:53:06;27.30;99.90
55721;DHT22;41626;53.098;6.168;2022-09-06T15:55:32;27.20;99.90
55721;DHT22;41626;53.098;6.168;2022-09-06T15:58:16;27.20;99.90
55721;DHT22;41626;53.098;6.168;2022-09-06T16:00:42;27.20;99.90
55721;DHT22;41626;53.098;6.168;2022-09-06T16:03:08;27.10;99.90
55721;DHT22;41626;53.098;6.168;2022-09-06T16:05:34;27.00;99.90
55721;DHT22;41626;53.098;6.168;2022-09-06T16:08:00;27.10;99.90
55721;DHT22;41626;53.098;6.168;2022-09-06T16:10:25;27.10;99.90
55721;DHT22;41626;53.098;6.168;2022-09-06T16:12:51;27.10;99.90
55721;DHT22;41626;53.098;6.168;2022-09-06T16:15:19;27.00;99.90
55721;DHT22;41626;53.098;6.168;2022-09-06T16:17:44;27.00;99.90
55721;DHT22;41626;53.098;6.168;2022-09-06T16:20:10;27.10;99.90
55721;DHT22;41626;53.098;6.168;2022-09-06T16:22:36;27.00;99.90
55721;DHT22;41626;53.098;6.168;2022-09-06T16:25:02;27.00;99.90
55721;DHT22;41626;53.098;6.168;2022-09-06T16:27:28;27.00;99.90
55721;DHT22;41626;53.098;6.168;2022-09-06T16:29:53;26.90;99.90
55721;DHT22;41626;53.098;6.168;2022-09-06T16:32:19;26.70;99.90
55721;DHT22;41626;53.098;6.168;2022-09-06T16:34:45;26.60;99.90
55721;DHT22;41626;53.098;6.168;2022-09-06T16:37:11;26.60;99.90
55721;DHT22;41626;53.098;6.168;2022-09-06T16:39:36;26.60;99.90
55721;DHT22;41626;53.098;6.168;2022-09-06T16:42:02;26.50;99.90
55721;DHT22;41626;53.098;6.168;2022-09-06T16:44:28;26.30;99.90
55721;DHT22;41626;53.098;6.168;2022-09-06T16:46:55;26.30;99.90
55721;DHT22;41626;53.098;6.168;2022-09-06T16:49:22;26.20;99.90
55721;DHT22;41626;53.098;6.168;2022-09-06T16:51:48;26.00;99.90
55721;DHT22;41626;53.098;6.168;2022-09-06T16:54:15;26.00;99.90
55721;DHT22;41626;53.098;6.168;2022-09-06T16:56:42;25.90;99.90
55721;DHT22;41626;53.098;6.168;2022-09-06T16:59:08;25.80;99.90
55721;DHT22;41626;53.098;6.168;2022-09-06T17:01:35;25.70;99.90
55721;DHT22;41626;53.098;6.168;2022-09-06T17:04:03;25.60;99.90
55721;DHT22;41626;53.098;6.168;2022-09-06T17:06:30;25.40;99.90
55721;DHT22;41626;53.098;6.168;2022-09-06T17:08:57;25.40;99.90
55721;DHT22;41626;53.098;6.168;2022-09-06T17:11:24;25.30;99.90
55721;DHT22;41626;53.098;6.168;2022-09-06T17:13:50;25.20;99.90
55721;DHT22;41626;53.098;6.168;2022-09-06T17:16:17;25.20;99.90
55721;DHT22;41626;53.098;6.168;2022-09-06T17:19:03;25.20;99.90
55721;DHT22;41626;53.098;6.168;2022-09-06T17:21:29;25.10;99.90
55721;DHT22;41626;53.098;6.168;2022-09-06T17:23:56;25.00;99.90
55721;DHT22;41626;53.098;6.168;2022-09-06T17:26:28;25.00;99.90
55721;DHT22;41626;53.098;6.168;2022-09-06T17:28:53;24.90;99.90
55721;DHT22;41626;53.098;6.168;2022-09-06T17:31:21;24.80;99.90
55721;DHT22;41626;53.098;6.168;2022-09-06T17:33:47;24.80;99.90